• Join FlightAware (Why Join?)
  • Login
  • US Flag 
Rudolph Flight #1: Arrived! 
06:33PM EST


 

Airport Tracker/Info


-or-


 

Live Flight TrackerFlight Track Log ✈ UAL4849 ✈ 15-Sep-2013 ✈ KEWR - KPVD

Flight Track Log - Related Links

Times and Time Zones

All times are in EDT time to prevent confusion due to time zone crossing. See the UAL4849 flight status page for this flight to view local times or setup timezone preferences in your user account.

Time Position Orientation Groundspeed Altitude Reporting Facility
EDT Latitude Longitude Course Direction KTS MPH feet Rate Location/Type
11:07AM 41.0209 -73.3239 63° Northeast  Level Estimated
11:08AM 41.0426 -73.2673 63° Northeast  Level Estimated
11:09AM 41.0673 -73.2026 63° Northeast  Level Estimated
11:10AM 41.0920 -73.1378 63° Northeast  Level Estimated
11:11AM 41.1166 -73.0729 63° Northeast  Level Estimated
11:12AM 41.1413 -73.0080 63° Northeast  Level Estimated
11:13AM 41.1659 -72.9431 63° Northeast  Level Estimated
11:14AM 41.1904 -72.8781 63° Northeast  Level Estimated
11:15AM 41.2149 -72.8131 63° Northeast  Level Estimated
11:16AM 41.2394 -72.7480 63° Northeast  Level Estimated
11:17AM 41.2639 -72.6828 63° Northeast  Level Estimated
11:18AM 41.2883 -72.6176 63° Northeast  Level Estimated
11:19AM 41.3126 -72.5524 64° Northeast  Level Estimated
11:20AM 41.3370 -72.4871 64° Northeast  Level Estimated
11:21AM 41.3613 -72.4218 64° Northeast  Level Estimated
11:22AM 41.3855 -72.3564 64° Northeast  Level Estimated
11:23AM 41.4098 -72.2910 64° Northeast  Level Estimated
11:24AM 41.4339 -72.2255 64° Northeast  Level Estimated
11:25AM 41.4581 -72.1600 64° Northeast  Level Estimated
11:26AM 41.4822 -72.0944 64° Northeast  Level Estimated
11:27AM 41.5063 -72.0288 64° Northeast  Level Estimated
11:28AM 41.5303 -71.9631 64° Northeast  Level Estimated
11:29AM 41.5543 -71.8974 64° Northeast  Level Estimated
11:30AM 41.5783 -71.8316 64° Northeast  Level Estimated
11:31AM 41.6022 -71.7658 64° Northeast  Level Estimated
11:32AM 41.6261 -71.6999 64° Northeast  Level Estimated
11:33AM 41.6499 -71.6340 64° Northeast  Level Estimated
11:34AM 41.6737 -71.5680 64° Northeast  Level Estimated
11:35AM 41.6975 -71.5020 64° Northeast  Level Estimated
11:36AM 41.7212 -71.4360 64° Northeast  Level Estimated
11:37AM 41.7240 -71.4282 64° Northeast  Level Estimated
11:38AM 41.7240 -71.4282 226° Southwest  Level Estimated
11:39AM 41.7240 -71.4282 226° Southwest  Level Estimated
11:40AM 41.7240 -71.4282 226° Southwest  Level Estimated
11:41AM 41.7240 -71.4282 226° Southwest  Level Estimated
11:42AM 41.7240 -71.4282 226° Southwest  Level Estimated
11:43AM 41.7240 -71.4282 226° Southwest  Level Estimated
11:44AM 41.7240 -71.4282 226° Southwest  Level Estimated
11:45AM 41.7240 -71.4282 226° Southwest  Level Estimated
11:46AM 41.7240 -71.4282 226° Southwest  Level Estimated
11:47AM 41.7240 -71.4282 226° Southwest  Level Estimated
11:48AM 41.7240 -71.4282 226° Southwest  Level Estimated
11:49AM 41.7240 -71.4282 226° Southwest  Level Estimated
11:50AM 41.7240 -71.4282 226° Southwest  Level Estimated